sensor_id;sensor_type;location;lat;lon;timestamp;pressure;altitude;pressure_sealevel;temperature;humidity
21185;BME280;18176;49.502;11.754;2023-12-20T00:02:12;96795.06;;;11.42;56.05
21185;BME280;18176;49.502;11.754;2023-12-20T00:06:13;96774.22;;;11.06;57.06
21185;BME280;18176;49.502;11.754;2023-12-20T00:10:14;96808.75;;;11.22;57.11
21185;BME280;18176;49.502;11.754;2023-12-20T00:14:16;96786.25;;;10.97;57.76
21185;BME280;18176;49.502;11.754;2023-12-20T00:18:17;96789.69;;;11.09;57.75
21185;BME280;18176;49.502;11.754;2023-12-20T00:22:17;96778.81;;;11.10;58.02
21185;BME280;18176;49.502;11.754;2023-12-20T00:26:18;96764.72;;;10.93;58.36
21185;BME280;18176;49.502;11.754;2023-12-20T00:30:21;96764.63;;;11.16;58.07
21185;BME280;18176;49.502;11.754;2023-12-20T00:34:21;96755.88;;;11.16;58.03
21185;BME280;18176;49.502;11.754;2023-12-20T00:38:21;96748.72;;;11.33;58.08
21185;BME280;18176;49.502;11.754;2023-12-20T00:42:22;96719.31;;;11.18;58.08
21185;BME280;18176;49.502;11.754;2023-12-20T00:46:25;96750.66;;;11.21;58.67
21185;BME280;18176;49.502;11.754;2023-12-20T00:50:25;96741.56;;;11.17;58.74
21185;BME280;18176;49.502;11.754;2023-12-20T00:54:26;96746.53;;;11.13;59.18
21185;BME280;18176;49.502;11.754;2023-12-20T00:58:28;96725.56;;;11.12;58.98
21185;BME280;18176;49.502;11.754;2023-12-20T01:02:34;96732.00;;;11.16;59.00
21185;BME280;18176;49.502;11.754;2023-12-20T01:06:34;96737.47;;;11.26;58.95
21185;BME280;18176;49.502;11.754;2023-12-20T01:10:34;96736.44;;;11.27;59.15
21185;BME280;18176;49.502;11.754;2023-12-20T01:14:35;96720.53;;;11.27;58.90
21185;BME280;18176;49.502;11.754;2023-12-20T01:18:39;96728.47;;;11.27;58.85
21185;BME280;18176;49.502;11.754;2023-12-20T01:22:39;96746.78;;;11.12;59.82
21185;BME280;18176;49.502;11.754;2023-12-20T01:26:40;96723.75;;;11.01;59.82
21185;BME280;18176;49.502;11.754;2023-12-20T01:30:40;96738.38;;;11.03;60.61
21185;BME280;18176;49.502;11.754;2023-12-20T01:34:43;96744.50;;;11.04;60.96
21185;BME280;18176;49.502;11.754;2023-12-20T01:38:44;96744.59;;;10.81;62.86
21185;BME280;18176;49.502;11.754;2023-12-20T01:42:44;96725.31;;;10.85;62.78
21185;BME280;18176;49.502;11.754;2023-12-20T01:46:45;96739.00;;;11.22;62.26
21185;BME280;18176;49.502;11.754;2023-12-20T01:50:49;96719.63;;;11.21;62.21
21185;BME280;18176;49.502;11.754;2023-12-20T01:54:49;96701.88;;;10.94;63.02
21185;BME280;18176;49.502;11.754;2023-12-20T01:58:52;96718.84;;;11.21;62.44
21185;BME280;18176;49.502;11.754;2023-12-20T02:02:54;96707.28;;;10.99;63.30
21185;BME280;18176;49.502;11.754;2023-12-20T02:07:02;96686.78;;;11.22;62.85
21185;BME280;18176;49.502;11.754;2023-12-20T02:11:03;96696.66;;;11.27;62.77
21185;BME280;18176;49.502;11.754;2023-12-20T02:15:06;96694.03;;;10.99;63.48
21185;BME280;18176;49.502;11.754;2023-12-20T02:19:13;96702.94;;;11.21;62.27
21185;BME280;18176;49.502;11.754;2023-12-20T02:23:16;96683.53;;;10.76;62.44
21185;BME280;18176;49.502;11.754;2023-12-20T02:27:19;96677.00;;;10.95;62.17
21185;BME280;18176;49.502;11.754;2023-12-20T02:31:21;96687.91;;;11.43;60.95
21185;BME280;18176;49.502;11.754;2023-12-20T02:35:22;96678.66;;;11.46;61.13
21185;BME280;18176;49.502;11.754;2023-12-20T02:39:25;96686.75;;;11.06;61.40
21185;BME280;18176;49.502;11.754;2023-12-20T02:43:25;96683.06;;;10.79;62.07
21185;BME280;18176;49.502;11.754;2023-12-20T02:47:25;96675.72;;;10.97;61.57
21185;BME280;18176;49.502;11.754;2023-12-20T02:51:27;96644.72;;;10.98;61.17
21185;BME280;18176;49.502;11.754;2023-12-20T02:55:30;96640.41;;;11.25;60.46
21185;BME280;18176;49.502;11.754;2023-12-20T02:59:30;96665.78;;;11.04;61.55
21185;BME280;18176;49.502;11.754;2023-12-20T03:03:31;96670.06;;;10.94;61.60
21185;BME280;18176;49.502;11.754;2023-12-20T03:07:31;96670.06;;;10.94;62.11
21185;BME280;18176;49.502;11.754;2023-12-20T03:11:34;96694.56;;;10.56;62.69
21185;BME280;18176;49.502;11.754;2023-12-20T03:15:34;96626.56;;;10.33;62.63
21185;BME280;18176;49.502;11.754;2023-12-20T03:19:34;96681.72;;;10.65;62.36
21185;BME280;18176;49.502;11.754;2023-12-20T03:23:35;96692.63;;;10.40;62.48
21185;BME280;18176;49.502;11.754;2023-12-20T03:27:39;96715.69;;;10.28;62.03
21185;BME280;18176;49.502;11.754;2023-12-20T03:31:40;96690.59;;;9.96;63.46
21185;BME280;18176;49.502;11.754;2023-12-20T03:35:41;96685.88;;;9.86;63.35
21185;BME280;18176;49.502;11.754;2023-12-20T03:39:41;96665.06;;;10.24;62.44
21185;BME280;18176;49.502;11.754;2023-12-20T03:43:44;96693.25;;;10.07;62.68
21185;BME280;18176;49.502;11.754;2023-12-20T03:47:44;96692.78;;;10.10;62.61
21185;BME280;18176;49.502;11.754;2023-12-20T03:51:46;96696.66;;;10.42;61.78
21185;BME280;18176;49.502;11.754;2023-12-20T03:55:46;96700.84;;;10.67;60.85
21185;BME280;18176;49.502;11.754;2023-12-20T03:59:49;96690.84;;;10.57;60.96
21185;BME280;18176;49.502;11.754;2023-12-20T04:03:49;96695.19;;;10.00;61.91
21185;BME280;18176;49.502;11.754;2023-12-20T04:07:49;96706.72;;;10.17;61.99
21185;BME280;18176;49.502;11.754;2023-12-20T04:11:50;96703.59;;;9.85;62.04
21185;BME280;18176;49.502;11.754;2023-12-20T04:15:54;96697.06;;;10.11;61.58
21185;BME280;18176;49.502;11.754;2023-12-20T04:19:54;96708.31;;;10.18;61.59
21185;BME280;18176;49.502;11.754;2023-12-20T04:23:54;96701.63;;;9.81;62.15
21185;BME280;18176;49.502;11.754;2023-12-20T04:27:55;96704.41;;;10.09;61.48
21185;BME280;18176;49.502;11.754;2023-12-20T04:31:57;96708.69;;;10.62;60.08
21185;BME280;18176;49.502;11.754;2023-12-20T04:35:58;96699.78;;;10.39;60.48
21185;BME280;18176;49.502;11.754;2023-12-20T04:39:58;96652.47;;;10.31;60.05
21185;BME280;18176;49.502;11.754;2023-12-20T04:43:59;96706.91;;;10.39;60.73
21185;BME280;18176;49.502;11.754;2023-12-20T04:48:03;96701.50;;;10.11;61.46
21185;BME280;18176;49.502;11.754;2023-12-20T04:52:04;96708.44;;;9.77;62.31
21185;BME280;18176;49.502;11.754;2023-12-20T04:56:05;96698.28;;;9.97;62.30
21185;BME280;18176;49.502;11.754;2023-12-20T05:00:07;96665.53;;;9.86;62.01
21185;BME280;18176;49.502;11.754;2023-12-20T05:04:11;96694.19;;;9.89;62.81
21185;BME280;18176;49.502;11.754;2023-12-20T05:08:11;96700.59;;;10.05;62.14
21185;BME280;18176;49.502;11.754;2023-12-20T05:12:11;96705.00;;;10.11;62.27
21185;BME280;18176;49.502;11.754;2023-12-20T05:16:12;96704.75;;;9.66;62.79
21185;BME280;18176;49.502;11.754;2023-12-20T05:20:18;96724.69;;;9.92;62.54
21185;BME280;18176;49.502;11.754;2023-12-20T05:24:19;96691.88;;;9.93;62.01
21185;BME280;18176;49.502;11.754;2023-12-20T05:28:19;96711.53;;;9.51;62.97
21185;BME280;18176;49.502;11.754;2023-12-20T05:32:19;96739.94;;;9.78;62.93
21185;BME280;18176;49.502;11.754;2023-12-20T05:36:23;96737.06;;;9.57;63.36
21185;BME280;18176;49.502;11.754;2023-12-20T05:40:23;96761.47;;;9.82;62.92
21185;BME280;18176;49.502;11.754;2023-12-20T05:44:23;96748.38;;;10.10;61.92
21185;BME280;18176;49.502;11.754;2023-12-20T05:48:24;96723.59;;;9.70;63.10
21185;BME280;18176;49.502;11.754;2023-12-20T05:52:27;96716.16;;;9.67;63.09
21185;BME280;18176;49.502;11.754;2023-12-20T05:56:27;96761.44;;;9.59;64.10
21185;BME280;18176;49.502;11.754;2023-12-20T06:00:28;96742.38;;;9.80;63.33
21185;BME280;18176;49.502;11.754;2023-12-20T06:04:28;96774.59;;;10.00;62.83
21185;BME280;18176;49.502;11.754;2023-12-20T06:08:31;96751.41;;;9.49;63.75
21185;BME280;18176;49.502;11.754;2023-12-20T06:12:31;96764.09;;;9.70;63.66
21185;BME280;18176;49.502;11.754;2023-12-20T06:16:33;96768.13;;;9.73;63.93
21185;BME280;18176;49.502;11.754;2023-12-20T06:20:33;96749.34;;;9.51;63.85
21185;BME280;18176;49.502;11.754;2023-12-20T06:24:36;96770.41;;;9.58;64.28
21185;BME280;18176;49.502;11.754;2023-12-20T06:28:36;96777.00;;;9.90;63.67
21185;BME280;18176;49.502;11.754;2023-12-20T06:32:38;96775.28;;;10.07;62.90
21185;BME280;18176;49.502;11.754;2023-12-20T06:36:39;96791.63;;;10.04;62.94
21185;BME280;18176;49.502;11.754;2023-12-20T06:40:42;96787.19;;;10.16;62.75
21185;BME280;18176;49.502;11.754;2023-12-20T06:44:43;96794.63;;;9.96;63.22
21185;BME280;18176;49.502;11.754;2023-12-20T06:48:43;96794.25;;;9.81;63.51
21185;BME280;18176;49.502;11.754;2023-12-20T06:52:44;96766.34;;;10.08;62.66
21185;BME280;18176;49.502;11.754;2023-12-20T06:56:49;96780.25;;;9.80;63.48
21185;BME280;18176;49.502;11.754;2023-12-20T07:00:50;96792.66;;;9.92;63.43
21185;BME280;18176;49.502;11.754;2023-12-20T07:04:51;96801.75;;;10.07;62.91
21185;BME280;18176;49.502;11.754;2023-12-20T07:08:52;96806.66;;;10.33;62.47
21185;BME280;18176;49.502;11.754;2023-12-20T07:12:55;96800.75;;;10.43;62.03
21185;BME280;18176;49.502;11.754;2023-12-20T07:16:55;96827.13;;;10.49;62.31
21185;BME280;18176;49.502;11.754;2023-12-20T07:20:55;96833.34;;;10.43;62.35
21185;BME280;18176;49.502;11.754;2023-12-20T07:24:56;96833.59;;;10.30;62.95
21185;BME280;18176;49.502;11.754;2023-12-20T07:28:59;96852.22;;;10.12;63.69
21185;BME280;18176;49.502;11.754;2023-12-20T07:33:00;96849.56;;;10.12;63.37
21185;BME280;18176;49.502;11.754;2023-12-20T07:37:01;96867.94;;;10.07;64.17
21185;BME280;18176;49.502;11.754;2023-12-20T07:41:01;96868.97;;;10.06;64.51
21185;BME280;18176;49.502;11.754;2023-12-20T07:45:06;96866.03;;;10.14;64.61
21185;BME280;18176;49.502;11.754;2023-12-20T07:49:06;96877.22;;;9.86;65.39
21185;BME280;18176;49.502;11.754;2023-12-20T07:53:07;96884.59;;;10.49;63.79
21185;BME280;18176;49.502;11.754;2023-12-20T07:57:08;96874.91;;;9.90;64.40
21185;BME280;18176;49.502;11.754;2023-12-20T08:01:12;96859.50;;;10.40;62.86
21185;BME280;18176;49.502;11.754;2023-12-20T08:05:13;96885.41;;;10.49;62.87
21185;BME280;18176;49.502;11.754;2023-12-20T08:09:15;96877.78;;;10.18;63.92
21185;BME280;18176;49.502;11.754;2023-12-20T08:13:15;96895.06;;;10.79;61.98
21185;BME280;18176;49.502;11.754;2023-12-20T08:17:18;96892.06;;;10.87;62.32
21185;BME280;18176;49.502;11.754;2023-12-20T08:21:20;96820.66;;;10.69;61.72
21185;BME280;18176;49.502;11.754;2023-12-20T08:25:20;96884.41;;;11.25;60.97
21185;BME280;18176;49.502;11.754;2023-12-20T08:29:21;96882.09;;;11.17;60.92
21185;BME280;18176;49.502;11.754;2023-12-20T08:33:23;96882.59;;;11.14;60.78
21185;BME280;18176;49.502;11.754;2023-12-20T08:37:24;96865.69;;;10.69;61.64
21185;BME280;18176;49.502;11.754;2023-12-20T08:41:24;96889.59;;;11.20;60.50
21185;BME280;18176;49.502;11.754;2023-12-20T08:45:25;96890.03;;;10.66;61.72
21185;BME280;18176;49.502;11.754;2023-12-20T08:49:28;96880.28;;;11.06;60.60
21185;BME280;18176;49.502;11.754;2023-12-20T08:53:29;96871.91;;;10.86;61.15
21185;BME280;18176;49.502;11.754;2023-12-20T08:57:29;96871.56;;;10.71;61.68
21185;BME280;18176;49.502;11.754;2023-12-20T09:01:31;96847.84;;;10.52;61.36
21185;BME280;18176;49.502;11.754;2023-12-20T09:05:33;96848.31;;;10.73;61.18
21185;BME280;18176;49.502;11.754;2023-12-20T09:09:34;96886.56;;;10.77;61.30
21185;BME280;18176;49.502;11.754;2023-12-20T09:13:34;96864.56;;;10.53;62.21
21185;BME280;18176;49.502;11.754;2023-12-20T09:17:34;96885.03;;;10.81;61.63
21185;BME280;18176;49.502;11.754;2023-12-20T09:21:37;96879.44;;;10.66;61.69
21185;BME280;18176;49.502;11.754;2023-12-20T09:25:38;96886.69;;;10.82;61.93
21185;BME280;18176;49.502;11.754;2023-12-20T09:29:38;96904.53;;;10.75;61.97
21185;BME280;18176;49.502;11.754;2023-12-20T09:33:38;96901.06;;;10.63;62.07
21185;BME280;18176;49.502;11.754;2023-12-20T09:37:42;96902.22;;;10.43;61.89
21185;BME280;18176;49.502;11.754;2023-12-20T09:41:45;96885.63;;;10.59;61.24
21185;BME280;18176;49.502;11.754;2023-12-20T09:45:50;96884.94;;;10.52;61.95
21185;BME280;18176;49.502;11.754;2023-12-20T09:49:54;96887.94;;;10.68;61.83
21185;BME280;18176;49.502;11.754;2023-12-20T09:53:58;96893.19;;;11.14;61.02
21185;BME280;18176;49.502;11.754;2023-12-20T09:58:01;96892.47;;;12.15;59.27
21185;BME280;18176;49.502;11.754;2023-12-20T10:02:04;96897.88;;;11.63;57.71
21185;BME280;18176;49.502;11.754;2023-12-20T10:06:10;96905.56;;;11.48;57.78
21185;BME280;18176;49.502;11.754;2023-12-20T10:10:13;96889.09;;;11.35;58.86
21185;BME280;18176;49.502;11.754;2023-12-20T10:14:14;96886.78;;;11.66;57.85
21185;BME280;18176;49.502;11.754;2023-12-20T10:18:17;96891.44;;;11.59;57.57
21185;BME280;18176;49.502;11.754;2023-12-20T10:22:18;96877.81;;;11.67;56.18
21185;BME280;18176;49.502;11.754;2023-12-20T10:26:26;96886.69;;;11.61;55.84
21185;BME280;18176;49.502;11.754;2023-12-20T10:30:27;96890.44;;;11.49;57.00
21185;BME280;18176;49.502;11.754;2023-12-20T10:34:28;96861.97;;;11.44;57.64
21185;BME280;18176;49.502;11.754;2023-12-20T10:38:28;96861.81;;;11.22;57.82
21185;BME280;18176;49.502;11.754;2023-12-20T10:42:32;96870.56;;;11.23;57.81
21185;BME280;18176;49.502;11.754;2023-12-20T10:46:34;96876.72;;;11.12;58.05
21185;BME280;18176;49.502;11.754;2023-12-20T10:50:37;96883.84;;;11.23;57.63
21185;BME280;18176;49.502;11.754;2023-12-20T10:54:39;96877.91;;;10.93;58.24
21185;BME280;18176;49.502;11.754;2023-12-20T10:58:42;96867.41;;;10.98;57.53
21185;BME280;18176;49.502;11.754;2023-12-20T11:02:44;96875.72;;;10.67;58.29
21185;BME280;18176;49.502;11.754;2023-12-20T11:06:51;96852.00;;;10.72;58.02
21185;BME280;18176;49.502;11.754;2023-12-20T11:11:00;96846.66;;;10.95;57.88
21185;BME280;18176;49.502;11.754;2023-12-20T11:15:07;96849.72;;;10.64;58.46
21185;BME280;18176;49.502;11.754;2023-12-20T11:19:08;96845.56;;;10.21;58.63
21185;BME280;18176;49.502;11.754;2023-12-20T11:23:11;96852.94;;;10.42;58.79
21185;BME280;18176;49.502;11.754;2023-12-20T11:27:13;96843.03;;;10.73;58.10
21185;BME280;18176;49.502;11.754;2023-12-20T11:31:16;96849.06;;;10.96;57.68
21185;BME280;18176;49.502;11.754;2023-12-20T11:35:20;96840.50;;;10.31;57.91
21185;BME280;18176;49.502;11.754;2023-12-20T11:39:22;96822.69;;;10.90;57.59
21185;BME280;18176;49.502;11.754;2023-12-20T11:43:32;96823.09;;;10.58;58.16
21185;BME280;18176;49.502;11.754;2023-12-20T11:47:38;96810.03;;;11.20;57.48
21185;BME280;18176;49.502;11.754;2023-12-20T11:51:41;96817.50;;;11.79;55.89
21185;BME280;18176;49.502;11.754;2023-12-20T11:55:41;96823.88;;;10.71;57.38
21185;BME280;18176;49.502;11.754;2023-12-20T11:59:45;96816.78;;;11.39;56.97
21185;BME280;18176;49.502;11.754;2023-12-20T12:03:48;96819.63;;;11.21;55.88
21185;BME280;18176;49.502;11.754;2023-12-20T12:08:02;96805.91;;;10.73;56.41
21185;BME280;18176;49.502;11.754;2023-12-20T12:12:04;96821.94;;;11.06;55.99
21185;BME280;18176;49.502;11.754;2023-12-20T12:16:10;96814.59;;;11.36;55.36
21185;BME280;18176;49.502;11.754;2023-12-20T12:20:13;96824.91;;;11.21;55.95
21185;BME280;18176;49.502;11.754;2023-12-20T12:24:14;96821.47;;;11.20;55.61
21185;BME280;18176;49.502;11.754;2023-12-20T12:28:14;96813.13;;;10.89;55.05
21185;BME280;18176;49.502;11.754;2023-12-20T12:32:16;96820.28;;;10.88;56.64
21185;BME280;18176;49.502;11.754;2023-12-20T12:36:19;96806.66;;;11.24;56.11
21185;BME280;18176;49.502;11.754;2023-12-20T12:40:19;96804.25;;;10.95;55.70
21185;BME280;18176;49.502;11.754;2023-12-20T12:44:20;96814.16;;;10.88;55.60
21185;BME280;18176;49.502;11.754;2023-12-20T12:48:21;96810.31;;;10.55;56.62
21185;BME280;18176;49.502;11.754;2023-12-20T12:52:25;96757.94;;;10.34;56.10
21185;BME280;18176;49.502;11.754;2023-12-20T12:56:26;96795.81;;;10.46;56.50
21185;BME280;18176;49.502;11.754;2023-12-20T13:00:26;96756.22;;;10.28;56.15
21185;BME280;18176;49.502;11.754;2023-12-20T13:04:27;96813.31;;;10.47;57.37
21185;BME280;18176;49.502;11.754;2023-12-20T13:08:30;96800.63;;;10.73;57.71
21185;BME280;18176;49.502;11.754;2023-12-20T13:12:31;96807.41;;;10.69;57.53
21185;BME280;18176;49.502;11.754;2023-12-20T13:16:31;96800.84;;;11.11;57.04
21185;BME280;18176;49.502;11.754;2023-12-20T13:20:32;96796.63;;;10.47;58.23
21185;BME280;18176;49.502;11.754;2023-12-20T13:24:35;96786.84;;;10.24;59.05
21185;BME280;18176;49.502;11.754;2023-12-20T13:28:35;96802.72;;;10.36;59.26
21185;BME280;18176;49.502;11.754;2023-12-20T13:32:35;96804.44;;;10.30;59.36
21185;BME280;18176;49.502;11.754;2023-12-20T13:36:36;96788.19;;;10.38;58.84
21185;BME280;18176;49.502;11.754;2023-12-20T13:40:39;96778.97;;;10.52;58.32
21185;BME280;18176;49.502;11.754;2023-12-20T13:44:40;96791.34;;;10.87;57.38
21185;BME280;18176;49.502;11.754;2023-12-20T13:48:41;96789.34;;;10.66;57.64
21185;BME280;18176;49.502;11.754;2023-12-20T13:52:42;96792.31;;;10.57;57.13
21185;BME280;18176;49.502;11.754;2023-12-20T13:56:46;96813.66;;;10.39;57.46
21185;BME280;18176;49.502;11.754;2023-12-20T14:01:05;96792.34;;;10.34;57.31
21185;BME280;18176;49.502;11.754;2023-12-20T14:05:06;96801.69;;;10.14;58.32
21185;BME280;18176;49.502;11.754;2023-12-20T14:09:07;96799.97;;;10.42;59.14
21185;BME280;18176;49.502;11.754;2023-12-20T14:13:12;96797.50;;;10.64;58.61
21185;BME280;18176;49.502;11.754;2023-12-20T14:17:12;96795.34;;;10.49;59.06
21185;BME280;18176;49.502;11.754;2023-12-20T14:21:12;96796.50;;;10.30;60.58
21185;BME280;18176;49.502;11.754;2023-12-20T14:25:14;96790.91;;;9.74;61.17
21185;BME280;18176;49.502;11.754;2023-12-20T14:29:17;96787.25;;;9.98;60.95
21185;BME280;18176;49.502;11.754;2023-12-20T14:33:18;96767.00;;;9.69;60.38
21185;BME280;18176;49.502;11.754;2023-12-20T14:37:19;96782.41;;;9.95;60.02
21185;BME280;18176;49.502;11.754;2023-12-20T14:41:20;96757.69;;;9.89;59.20
21185;BME280;18176;49.502;11.754;2023-12-20T14:45:24;96758.72;;;10.00;58.84
21185;BME280;18176;49.502;11.754;2023-12-20T14:49:25;96755.47;;;9.75;59.89
21185;BME280;18176;49.502;11.754;2023-12-20T14:53:26;96755.88;;;10.13;58.32
21185;BME280;18176;49.502;11.754;2023-12-20T14:57:27;96747.66;;;9.80;59.08
21185;BME280;18176;49.502;11.754;2023-12-20T15:01:30;96738.47;;;9.82;59.33
21185;BME280;18176;49.502;11.754;2023-12-20T15:05:31;96737.69;;;10.28;57.63
21185;BME280;18176;49.502;11.754;2023-12-20T15:09:31;96736.84;;;9.70;58.77
21185;BME280;18176;49.502;11.754;2023-12-20T15:13:32;96736.13;;;9.63;59.28
21185;BME280;18176;49.502;11.754;2023-12-20T15:17:35;96728.44;;;9.61;58.34
21185;BME280;18176;49.502;11.754;2023-12-20T15:21:36;96744.91;;;9.75;58.42
21185;BME280;18176;49.502;11.754;2023-12-20T15:25:44;96736.84;;;9.70;57.97
21185;BME280;18176;49.502;11.754;2023-12-20T15:29:44;96753.03;;;9.50;58.80
21185;BME280;18176;49.502;11.754;2023-12-20T15:33:49;96748.28;;;9.41;58.88
21185;BME280;18176;49.502;11.754;2023-12-20T15:37:50;96746.50;;;9.53;58.86
21185;BME280;18176;49.502;11.754;2023-12-20T15:41:50;96731.47;;;9.24;59.47
21185;BME280;18176;49.502;11.754;2023-12-20T15:45:51;96724.06;;;9.02;59.73
21185;BME280;18176;49.502;11.754;2023-12-20T15:49:58;96745.53;;;9.47;58.99
21185;BME280;18176;49.502;11.754;2023-12-20T15:53:59;96741.09;;;9.59;58.83
21185;BME280;18176;49.502;11.754;2023-12-20T15:58:03;96733.72;;;9.61;59.10
21185;BME280;18176;49.502;11.754;2023-12-20T16:02:04;96725.47;;;9.16;59.78
21185;BME280;18176;49.502;11.754;2023-12-20T16:06:08;96731.09;;;9.73;58.35
21185;BME280;18176;49.502;11.754;2023-12-20T16:10:10;96731.66;;;9.63;58.48
21185;BME280;18176;49.502;11.754;2023-12-20T16:14:10;96749.25;;;9.81;58.31
21185;BME280;18176;49.502;11.754;2023-12-20T16:18:15;96758.59;;;9.95;57.95
21185;BME280;18176;49.502;11.754;2023-12-20T16:22:17;96768.72;;;9.86;58.23
21185;BME280;18176;49.502;11.754;2023-12-20T16:26:18;96731.06;;;9.50;58.72
21185;BME280;18176;49.502;11.754;2023-12-20T16:30:18;96741.91;;;9.60;58.95
21185;BME280;18176;49.502;11.754;2023-12-20T16:34:19;96745.81;;;9.69;59.25
21185;BME280;18176;49.502;11.754;2023-12-20T16:38:22;96748.00;;;9.95;59.13
21185;BME280;18176;49.502;11.754;2023-12-20T16:42:22;96755.81;;;9.78;59.43
21185;BME280;18176;49.502;11.754;2023-12-20T16:46:22;96779.81;;;9.54;60.43
21185;BME280;18176;49.502;11.754;2023-12-20T16:50:23;96756.59;;;9.56;59.82
21185;BME280;18176;49.502;11.754;2023-12-20T16:54:26;96755.94;;;9.72;59.69
21185;BME280;18176;49.502;11.754;2023-12-20T16:58:27;96751.56;;;9.66;60.02
21185;BME280;18176;49.502;11.754;2023-12-20T17:02:31;96771.09;;;9.65;60.02
21185;BME280;18176;49.502;11.754;2023-12-20T17:06:32;96754.53;;;9.69;59.28
21185;BME280;18176;49.502;11.754;2023-12-20T17:10:35;96777.13;;;9.95;58.87
21185;BME280;18176;49.502;11.754;2023-12-20T17:14:35;96753.84;;;9.74;58.73
21185;BME280;18176;49.502;11.754;2023-12-20T17:18:36;96770.94;;;10.01;57.89
21185;BME280;18176;49.502;11.754;2023-12-20T17:22:36;96765.94;;;9.81;58.33
21185;BME280;18176;49.502;11.754;2023-12-20T17:26:39;96770.56;;;9.98;58.50
21185;BME280;18176;49.502;11.754;2023-12-20T17:30:40;96764.16;;;10.28;57.33
21185;BME280;18176;49.502;11.754;2023-12-20T17:34:44;96759.56;;;10.12;57.51
21185;BME280;18176;49.502;11.754;2023-12-20T17:38:44;96746.06;;;10.02;57.50
21185;BME280;18176;49.502;11.754;2023-12-20T17:42:47;96764.50;;;10.20;57.71
21185;BME280;18176;49.502;11.754;2023-12-20T17:46:48;96761.72;;;9.92;57.44
21185;BME280;18176;49.502;11.754;2023-12-20T17:50:49;96769.78;;;10.20;56.81
21185;BME280;18176;49.502;11.754;2023-12-20T17:54:51;96778.00;;;9.66;57.62
21185;BME280;18176;49.502;11.754;2023-12-20T17:58:54;96800.50;;;9.98;57.73
21185;BME280;18176;49.502;11.754;2023-12-20T18:02:55;96793.22;;;9.82;57.89
21185;BME280;18176;49.502;11.754;2023-12-20T18:06:56;96796.81;;;10.45;56.73
21185;BME280;18176;49.502;11.754;2023-12-20T18:10:56;96792.84;;;10.31;56.58
21185;BME280;18176;49.502;11.754;2023-12-20T18:14:59;96780.59;;;10.53;56.76
21185;BME280;18176;49.502;11.754;2023-12-20T18:19:00;96786.94;;;10.29;57.74
21185;BME280;18176;49.502;11.754;2023-12-20T18:23:01;96784.16;;;9.89;59.01
21185;BME280;18176;49.502;11.754;2023-12-20T18:27:02;96783.91;;;9.91;59.54
21185;BME280;18176;49.502;11.754;2023-12-20T18:31:05;96788.59;;;9.66;60.40
21185;BME280;18176;49.502;11.754;2023-12-20T18:35:06;96767.59;;;10.06;59.33
21185;BME280;18176;49.502;11.754;2023-12-20T18:39:07;96778.31;;;10.22;59.56
21185;BME280;18176;49.502;11.754;2023-12-20T18:43:08;96780.59;;;10.07;60.24
21185;BME280;18176;49.502;11.754;2023-12-20T18:47:11;96758.50;;;10.13;59.62
21185;BME280;18176;49.502;11.754;2023-12-20T18:51:11;96741.44;;;9.63;60.95
21185;BME280;18176;49.502;11.754;2023-12-20T18:55:12;96772.50;;;9.67;61.81
21185;BME280;18176;49.502;11.754;2023-12-20T18:59:13;96774.84;;;10.10;60.76
21185;BME280;18176;49.502;11.754;2023-12-20T19:03:17;96733.97;;;9.71;60.84
21185;BME280;18176;49.502;11.754;2023-12-20T19:07:18;96769.31;;;10.00;60.71
21185;BME280;18176;49.502;11.754;2023-12-20T19:11:19;96747.63;;;9.57;61.93
21185;BME280;18176;49.502;11.754;2023-12-20T19:15:20;96761.97;;;10.25;60.45
21185;BME280;18176;49.502;11.754;2023-12-20T19:19:24;96778.72;;;9.73;61.59
21185;BME280;18176;49.502;11.754;2023-12-20T19:23:25;96752.72;;;9.93;61.26
21185;BME280;18176;49.502;11.754;2023-12-20T19:27:26;96756.44;;;9.92;61.49
21185;BME280;18176;49.502;11.754;2023-12-20T19:31:26;96733.97;;;9.95;61.00
21185;BME280;18176;49.502;11.754;2023-12-20T19:35:30;96749.84;;;9.71;61.80
21185;BME280;18176;49.502;11.754;2023-12-20T19:39:30;96732.59;;;9.80;61.38
21185;BME280;18176;49.502;11.754;2023-12-20T19:43:32;96729.44;;;9.49;62.05
21185;BME280;18176;49.502;11.754;2023-12-20T19:47:33;96726.16;;;9.24;62.91
21185;BME280;18176;49.502;11.754;2023-12-20T19:51:37;96712.69;;;10.01;60.84
21185;BME280;18176;49.502;11.754;2023-12-20T19:55:37;96737.53;;;10.00;61.56
21185;BME280;18176;49.502;11.754;2023-12-20T19:59:38;96712.34;;;9.86;61.45
21185;BME280;18176;49.502;11.754;2023-12-20T20:03:39;96735.34;;;9.51;62.62
21185;BME280;18176;49.502;11.754;2023-12-20T20:07:43;96736.03;;;9.93;62.15
21185;BME280;18176;49.502;11.754;2023-12-20T20:11:44;96729.47;;;9.72;62.61
21185;BME280;18176;49.502;11.754;2023-12-20T20:15:47;96682.75;;;9.31;63.28
21185;BME280;18176;49.502;11.754;2023-12-20T20:19:47;96717.78;;;10.14;61.51
21185;BME280;18176;49.502;11.754;2023-12-20T20:23:51;96696.16;;;10.17;61.58
21185;BME280;18176;49.502;11.754;2023-12-20T20:27:51;96688.09;;;10.12;61.31
21185;BME280;18176;49.502;11.754;2023-12-20T20:31:52;96657.25;;;9.83;62.02
21185;BME280;18176;49.502;11.754;2023-12-20T20:35:53;96699.69;;;10.11;61.47
21185;BME280;18176;49.502;11.754;2023-12-20T20:39:56;96717.06;;;10.19;61.01
21185;BME280;18176;49.502;11.754;2023-12-20T20:43:57;96705.97;;;10.56;60.58
21185;BME280;18176;49.502;11.754;2023-12-20T20:47:58;96695.88;;;10.07;61.81
21185;BME280;18176;49.502;11.754;2023-12-20T20:52:17;96662.88;;;9.86;61.75
21185;BME280;18176;49.502;11.754;2023-12-20T20:56:20;96679.69;;;9.92;62.08
21185;BME280;18176;49.502;11.754;2023-12-20T21:00:20;96694.53;;;10.16;61.61
21185;BME280;18176;49.502;11.754;2023-12-20T21:04:21;96690.38;;;10.20;61.46
21185;BME280;18176;49.502;11.754;2023-12-20T21:08:22;96676.31;;;10.08;61.75